Time;durP1;ratioP1;P1;durP2;ratioP2;P2;SDS_P1;SDS_P2;PMS_P1;PMS_P2;Temp;Humidity;BMP_temperature;BMP_pressure;BME280_temperature;BME280_humidity;BME280_pressure;Samples;Min_cycle;Max_cycle;Signal;HPM_P1;HPM_P2
2022/05/06 00:01:50;;;;;;;0.52;0.52;;;20.70;49.90;;;;;;6270723;28;20014;-68
2022/05/06 00:04:51;;;;;;;1.05;0.70;;;20.70;49.90;;;;;;6270524;28;20013;-68
2022/05/06 00:07:52;;;;;;;0.60;0.60;;;20.70;49.90;;;;;;6270903;28;20123;-69
2022/05/06 00:10:52;;;;;;;0.90;0.60;;;20.70;50.00;;;;;;6270413;28;20040;-67
2022/05/06 00:13:53;;;;;;;0.55;0.45;;;20.70;49.90;;;;;;6270454;28;20032;-67
2022/05/06 00:16:54;;;;;;;1.10;0.50;;;20.70;49.90;;;;;;6270594;28;20741;-69
2022/05/06 00:19:54;;;;;;;0.60;0.52;;;20.70;49.90;;;;;;6270303;28;20033;-68
2022/05/06 00:22:57;;;;;;;1.48;0.77;;;20.70;50.00;;;;;;6270312;28;20107;-68
2022/05/06 00:25:58;;;;;;;0.75;0.50;;;20.70;50.00;;;;;;6252285;28;20017;-69
2022/05/06 00:28:58;;;;;;;0.85;0.70;;;20.70;50.00;;;;;;6270271;28;20560;-68
2022/05/06 00:32:01;;;;;;;0.70;0.63;;;20.70;50.00;;;;;;6245776;28;20033;-68
2022/05/06 00:35:02;;;;;;;1.05;0.60;;;20.70;49.90;;;;;;6245128;28;20037;-69
2022/05/06 00:38:03;;;;;;;1.35;0.60;;;20.70;50.00;;;;;;6227456;28;20101;-68
2022/05/06 00:41:04;;;;;;;0.77;0.60;;;20.70;50.00;;;;;;6244926;28;20029;-68
2022/05/06 00:44:06;;;;;;;0.52;0.50;;;20.70;50.00;;;;;;6227472;28;20021;-69
2022/05/06 00:47:07;;;;;;;0.60;0.50;;;20.70;50.00;;;;;;6245041;28;20558;-68
2022/05/06 00:50:10;;;;;;;1.48;0.70;;;20.70;50.00;;;;;;6244935;28;20037;-68
2022/05/06 00:53:12;;;;;;;0.75;0.57;;;20.70;50.00;;;;;;6262808;28;20025;-69
2022/05/06 00:56:14;;;;;;;0.80;0.52;;;20.70;50.00;;;;;;6268048;28;20506;-68
2022/05/06 00:59:15;;;;;;;0.63;0.50;;;20.70;50.00;;;;;;6269737;28;20104;-69
2022/05/06 01:02:15;;;;;;;1.73;0.75;;;20.70;50.00;;;;;;6269201;28;20055;-68
2022/05/06 01:05:16;;;;;;;0.63;0.60;;;20.70;50.00;;;;;;6269399;28;20479;-69
2022/05/06 01:08:16;;;;;;;0.88;0.63;;;20.70;50.00;;;;;;6268625;28;20031;-68
2022/05/06 01:11:18;;;;;;;0.77;0.50;;;20.70;50.00;;;;;;6269257;28;20029;-69
2022/05/06 01:14:35;;;;;;;1.40;0.57;;;20.70;50.00;;;;;;6269061;28;20457;-69
2022/05/06 01:17:35;;;;;;;0.38;0.38;;;20.70;50.00;;;;;;6251144;28;20128;-69
2022/05/06 01:20:42;;;;;;;0.90;0.70;;;20.70;50.00;;;;;;6268945;28;20025;-69
2022/05/06 01:23:42;;;;;;;0.82;0.60;;;20.70;50.00;;;;;;6269025;28;20391;-68
2022/05/06 01:26:54;;;;;;;0.65;0.60;;;20.70;50.10;;;;;;6268506;28;20029;-69
2022/05/06 01:29:56;;;;;;;0.88;0.50;;;20.70;50.00;;;;;;6268617;28;20025;-68
2022/05/06 01:32:59;;;;;;;0.82;0.70;;;20.70;50.00;;;;;;6268876;28;20051;-68
2022/05/06 01:36:05;;;;;;;0.77;0.60;;;20.70;50.00;;;;;;6268368;28;20096;-68
2022/05/06 01:39:06;;;;;;;1.33;0.63;;;20.70;50.10;;;;;;6268480;28;20032;-68
2022/05/06 01:42:12;;;;;;;0.90;0.70;;;20.70;50.00;;;;;;6250562;28;20028;-69
2022/05/06 01:45:15;;;;;;;0.90;0.60;;;20.70;50.00;;;;;;6268327;28;20025;-68
2022/05/06 01:48:17;;;;;;;0.63;0.40;;;20.70;50.00;;;;;;6250700;28;20029;-69
2022/05/06 01:51:19;;;;;;;0.45;0.45;;;20.70;50.10;;;;;;6268271;28;20059;-68
2022/05/06 01:54:20;;;;;;;0.77;0.50;;;20.70;50.10;;;;;;6266962;28;20025;-67
2022/05/06 01:57:20;;;;;;;0.65;0.60;;;20.70;50.10;;;;;;6268170;28;20040;-68
2022/05/06 02:00:21;;;;;;;0.75;0.60;;;20.70;50.10;;;;;;6268237;28;20139;-68
2022/05/06 02:06:41;;;;;;;1.35;0.65;;;20.70;50.10;;;;;;6268842;28;20029;-69
2022/05/06 02:09:42;;;;;;;0.50;0.50;;;20.70;50.10;;;;;;6268451;28;20461;-68
2022/05/06 02:12:43;;;;;;;0.80;0.60;;;20.60;50.00;;;;;;6267766;28;20051;-68
2022/05/06 02:15:45;;;;;;;0.90;0.70;;;20.70;50.10;;;;;;6268078;28;20427;-69
2022/05/06 02:18:45;;;;;;;0.50;0.50;;;20.70;50.10;;;;;;6250676;28;20040;-69
2022/05/06 02:21:46;;;;;;;1.00;0.70;;;20.70;50.10;;;;;;6272923;28;20049;-68
2022/05/06 02:24:47;;;;;;;0.68;0.60;;;20.70;50.10;;;;;;6272948;28;20043;-69
2022/05/06 02:27:48;;;;;;;0.80;0.60;;;20.70;50.30;;;;;;6254935;28;20032;-67
2022/05/06 02:34:15;;;;;;;0.88;0.50;;;20.70;50.10;;;;;;6259737;28;20584;-68
2022/05/06 02:37:16;;;;;;;0.93;0.60;;;20.70;50.10;;;;;;6272407;28;20056;-69
2022/05/06 02:40:16;;;;;;;0.50;0.50;;;20.70;50.10;;;;;;6254765;28;20078;-68
2022/05/06 02:43:17;;;;;;;0.50;0.50;;;20.70;50.90;;;;;;6272474;28;20025;-68
2022/05/06 02:46:18;;;;;;;0.63;0.60;;;20.70;50.10;;;;;;6254728;28;20032;-68
2022/05/06 02:49:19;;;;;;;1.65;0.80;;;20.70;50.20;;;;;;6272271;28;20510;-68
2022/05/06 02:52:21;;;;;;;0.85;0.60;;;20.70;50.20;;;;;;6272356;28;20036;-68
2022/05/06 02:55:23;;;;;;;0.55;0.52;;;20.70;50.20;;;;;;6272485;28;20480;-68
2022/05/06 02:58:24;;;;;;;0.50;0.47;;;20.70;50.20;;;;;;6254366;28;20099;-68
2022/05/06 03:01:24;;;;;;;0.73;0.52;;;20.70;50.20;;;;;;6254370;28;20020;-67
2022/05/06 03:04:25;;;;;;;0.63;0.50;;;20.70;50.20;;;;;;6272264;28;20021;-67
2022/05/06 03:07:26;;;;;;;1.42;0.70;;;20.70;50.20;;;;;;6254142;28;20021;-67
2022/05/06 03:10:26;;;;;;;0.80;0.70;;;20.60;50.10;;;;;;6271530;28;20142;-68
2022/05/06 03:13:27;;;;;;;0.60;0.60;;;20.70;50.20;;;;;;6272079;28;20035;-69
2022/05/06 03:16:27;;;;;;;1.08;0.73;;;20.70;50.20;;;;;;6271849;28;20035;-68
2022/05/06 03:19:28;;;;;;;0.98;0.60;;;20.70;50.20;;;;;;6271369;28;20036;-68
2022/05/06 03:22:29;;;;;;;0.80;0.50;;;20.70;50.20;;;;;;6253913;28;20498;-69
2022/05/06 03:25:31;;;;;;;0.82;0.63;;;20.70;50.20;;;;;;6253714;28;20021;-69
2022/05/06 03:28:32;;;;;;;0.63;0.50;;;20.60;50.10;;;;;;6253867;28;20032;-69
2022/05/06 03:31:33;;;;;;;0.88;0.73;;;20.70;50.20;;;;;;6233404;28;20076;-67
2022/05/06 03:34:33;;;;;;;2.40;0.82;;;20.70;50.20;;;;;;6246876;28;20557;-68
2022/05/06 03:37:36;;;;;;;0.70;0.63;;;20.70;50.20;;;;;;6246711;28;20435;-67
2022/05/06 03:40:37;;;;;;;0.95;0.60;;;20.70;50.20;;;;;;6245150;28;20027;-68
2022/05/06 03:43:37;;;;;;;0.82;0.50;;;20.70;50.20;;;;;;6246506;28;20021;-68
2022/05/06 03:46:38;;;;;;;0.75;0.60;;;20.70;50.20;;;;;;6246387;28;20021;-69
2022/05/06 03:49:39;;;;;;;0.65;0.50;;;20.70;50.20;;;;;;6228391;28;20032;-68
2022/05/06 03:52:39;;;;;;;2.72;0.80;;;20.70;50.20;;;;;;6260093;28;20025;-69
2022/05/06 03:55:41;;;;;;;0.98;0.70;;;20.70;50.30;;;;;;6271053;28;20025;-67
2022/05/06 03:58:42;;;;;;;1.10;0.80;;;20.70;50.20;;;;;;6252706;28;20029;-69
2022/05/06 04:01:42;;;;;;;0.88;0.55;;;20.70;50.30;;;;;;6252993;28;20036;-68
2022/05/06 04:04:43;;;;;;;1.00;0.63;;;20.70;50.30;;;;;;6269820;28;20017;-67
2022/05/06 04:07:43;;;;;;;0.52;0.50;;;20.70;50.20;;;;;;6270714;28;20432;-69
2022/05/06 04:10:44;;;;;;;0.52;0.52;;;20.60;50.10;;;;;;6270191;28;20675;-69
2022/05/06 04:13:45;;;;;;;1.02;0.55;;;20.70;50.20;;;;;;6270614;28;20053;-67
2022/05/06 04:16:45;;;;;;;0.70;0.68;;;20.70;50.20;;;;;;6270621;28;20075;-67
2022/05/06 04:26:26;;;;;;;0.80;0.55;;;20.70;50.20;;;;;;6270573;28;20471;-67
2022/05/06 04:29:28;;;;;;;0.70;0.57;;;20.70;50.20;;;;;;6268413;28;20040;-67
2022/05/06 04:32:28;;;;;;;0.60;0.57;;;20.70;50.30;;;;;;6245426;28;20072;-67
2022/05/06 04:35:29;;;;;;;0.68;0.55;;;20.70;50.30;;;;;;6245430;28;20029;-67
2022/05/06 04:38:30;;;;;;;1.02;0.60;;;20.70;50.20;;;;;;6244996;28;20116;-68
2022/05/06 04:41:31;;;;;;;1.40;0.63;;;20.70;50.20;;;;;;6244239;28;20028;-67
2022/05/06 04:44:32;;;;;;;0.75;0.70;;;20.70;50.20;;;;;;6243581;28;20022;-67
2022/05/06 04:47:34;;;;;;;0.90;0.68;;;20.70;50.20;;;;;;6244072;28;20456;-67
2022/05/06 04:50:36;;;;;;;0.93;0.70;;;20.70;50.20;;;;;;6244769;28;20026;-67
2022/05/06 04:53:37;;;;;;;0.80;0.50;;;20.70;50.20;;;;;;6266604;28;20028;-68
2022/05/06 04:56:37;;;;;;;0.68;0.50;;;20.70;50.30;;;;;;6269665;28;20053;-67
2022/05/06 05:03:35;;;;;;;;;;;20.70;50.20;;;;;;6269921;28;20554;-68
2022/05/06 05:06:36;;;;;;;1.25;0.70;;;20.70;50.20;;;;;;6269670;28;19913;-67
2022/05/06 05:09:37;;;;;;;1.50;0.90;;;20.70;50.20;;;;;;6268705;28;20063;-67
2022/05/06 05:12:38;;;;;;;1.30;0.85;;;20.70;50.30;;;;;;6269446;28;20056;-67
2022/05/06 05:15:39;;;;;;;1.00;0.50;;;20.70;50.90;;;;;;6251328;28;20102;-67
2022/05/06 05:18:39;;;;;;;1.25;0.73;;;20.70;50.30;;;;;;6269157;28;20507;-67
2022/05/06 05:21:40;;;;;;;0.50;0.50;;;20.70;50.30;;;;;;6268716;28;20071;-67
2022/05/06 05:24:41;;;;;;;1.75;0.70;;;20.70;50.30;;;;;;6269009;28;20142;-67
2022/05/06 05:27:41;;;;;;;0.68;0.50;;;20.60;50.10;;;;;;6269144;28;20021;-67
2022/05/06 05:30:42;;;;;;;0.80;0.70;;;20.70;50.20;;;;;;6268697;28;20100;-67
2022/05/06 05:33:43;;;;;;;1.08;0.60;;;20.70;50.20;;;;;;6268761;28;20036;-67
2022/05/06 05:36:44;;;;;;;1.92;0.55;;;20.70;50.20;;;;;;6261990;28;20130;-67
2022/05/06 05:39:45;;;;;;;0.98;0.80;;;20.70;50.20;;;;;;6266073;28;20045;-67
2022/05/06 05:42:46;;;;;;;1.00;0.65;;;20.70;50.20;;;;;;6260388;28;20409;-67
2022/05/06 05:49:05;;;;;;;1.00;0.60;;;20.70;50.30;;;;;;6243074;28;20112;-67
2022/05/06 05:52:06;;;;;;;0.63;0.50;;;20.70;50.30;;;;;;6257596;28;20035;-68
2022/05/06 05:55:08;;;;;;;1.52;1.15;;;20.70;50.00;;;;;;6259275;28;20096;-67
2022/05/06 05:58:09;;;;;;;1.02;0.85;;;20.70;50.10;;;;;;6263889;28;20021;-67
2022/05/06 06:01:10;;;;;;;0.75;0.52;;;20.70;50.00;;;;;;6267779;28;20017;-68
2022/05/06 06:04:10;;;;;;;0.70;0.70;;;20.70;50.10;;;;;;6269591;28;20032;-67
2022/05/06 06:07:11;;;;;;;0.80;0.70;;;20.70;50.00;;;;;;6269270;28;20104;-68
2022/05/06 06:10:13;;;;;;;1.25;0.70;;;20.70;50.00;;;;;;6268683;28;20435;-67
2022/05/06 06:13:16;;;;;;;1.00;0.82;;;20.70;50.10;;;;;;6269200;28;20466;-67
2022/05/06 06:16:17;;;;;;;1.35;0.90;;;20.70;50.00;;;;;;6268759;28;20033;-68
2022/05/06 06:19:17;;;;;;;1.20;0.70;;;20.70;50.10;;;;;;6256390;28;20535;-67
2022/05/06 06:22:18;;;;;;;0.93;0.75;;;20.70;50.00;;;;;;6266315;28;20021;-67
2022/05/06 06:25:19;;;;;;;1.08;0.77;;;20.70;50.40;;;;;;6269495;28;20025;-67
2022/05/06 06:28:20;;;;;;;3.85;0.80;;;20.80;50.20;;;;;;6267952;28;20032;-66
2022/05/06 06:31:21;;;;;;;9.20;0.90;;;20.80;49.90;;;;;;6250911;28;20029;-66
2022/05/06 06:34:21;;;;;;;1.45;1.05;;;20.90;50.70;;;;;;6244531;28;20041;-66
2022/05/06 06:37:25;;;;;;;1.92;0.88;;;20.80;50.50;;;;;;6255266;28;20033;-66
2022/05/06 06:40:26;;;;;;;4.65;1.00;;;20.80;50.30;;;;;;6268866;28;20017;-67
2022/05/06 06:43:27;;;;;;;1.88;0.63;;;20.80;50.20;;;;;;6250307;28;20045;-66
2022/05/06 06:46:27;;;;;;;2.35;1.10;;;20.80;50.20;;;;;;6269220;28;20029;-67
2022/05/06 06:49:29;;;;;;;2.67;0.88;;;20.80;50.20;;;;;;6268429;28;20025;-67
2022/05/06 06:52:29;;;;;;;2.90;0.88;;;20.80;50.30;;;;;;6263284;28;20036;-68
2022/05/06 06:55:30;;;;;;;1.10;0.80;;;20.70;50.20;;;;;;6241866;28;20025;-67
2022/05/06 06:58:31;;;;;;;1.27;0.77;;;20.70;50.20;;;;;;6242574;28;20021;-67
2022/05/06 07:01:33;;;;;;;1.13;0.80;;;20.70;50.30;;;;;;6248184;28;20025;-67
2022/05/06 07:04:34;;;;;;;7.82;2.90;;;20.70;50.10;;;;;;6267185;28;20021;-67
2022/05/06 07:14:13;;;;;;;2.95;1.50;;;20.70;49.80;;;;;;6273865;28;20590;-67
2022/05/06 07:17:14;;;;;;;2.92;1.60;;;20.70;49.80;;;;;;6273204;28;20514;-67
2022/05/06 07:20:15;;;;;;;3.63;1.52;;;20.70;49.90;;;;;;6265951;28;20021;-69
2022/05/06 07:23:16;;;;;;;4.43;1.88;;;20.70;49.90;;;;;;6262197;28;20037;-67
2022/05/06 07:26:16;;;;;;;3.08;1.42;;;20.70;49.90;;;;;;6251739;28;20104;-67
2022/05/06 07:29:17;;;;;;;3.10;1.75;;;20.70;49.90;;;;;;6272723;28;20025;-67
2022/05/06 07:32:18;;;;;;;2.00;1.35;;;20.70;49.90;;;;;;6273113;28;20040;-67
2022/05/06 07:35:18;;;;;;;4.15;1.70;;;20.70;49.90;;;;;;6273065;28;20036;-68
2022/05/06 07:38:19;;;;;;;4.55;1.73;;;20.70;49.90;;;;;;6272903;28;20036;-68
2022/05/06 07:41:20;;;;;;;2.97;1.50;;;20.70;49.90;;;;;;6271190;28;20083;-67
2022/05/06 07:44:21;;;;;;;3.08;1.33;;;20.70;49.90;;;;;;6265499;28;20170;-67
2022/05/06 07:47:24;;;;;;;2.03;1.23;;;20.70;50.60;;;;;;6272625;28;20029;-68
2022/05/06 07:50:26;;;;;;;3.47;1.48;;;20.70;49.90;;;;;;6254100;28;20029;-67
2022/05/06 07:53:27;;;;;;;4.63;1.80;;;20.70;49.90;;;;;;6272355;28;20495;-67
2022/05/06 07:56:30;;;;;;;4.05;1.98;;;20.70;50.00;;;;;;6272247;28;20078;-68
2022/05/06 07:59:32;;;;;;;2.92;1.40;;;20.70;49.90;;;;;;6273018;28;20055;-67
2022/05/06 08:05:57;;;;;;;2.95;1.48;;;20.70;50.00;;;;;;6269772;28;20495;-68
2022/05/06 08:08:57;;;;;;;2.72;1.48;;;20.70;50.00;;;;;;6254158;28;20137;-68
2022/05/06 08:11:59;;;;;;;2.50;1.33;;;20.70;50.00;;;;;;6246031;28;20492;-68
2022/05/06 08:14:59;;;;;;;1.95;1.33;;;20.70;50.00;;;;;;6245926;28;20032;-71
2022/05/06 08:18:00;;;;;;;3.30;1.58;;;20.70;50.00;;;;;;6260198;28;20033;-69
2022/05/06 08:21:00;;;;;;;2.67;1.58;;;20.70;50.00;;;;;;6271744;28;20025;-70
2022/05/06 08:24:01;;;;;;;2.50;1.30;;;20.70;50.00;;;;;;6271222;28;20029;-69
2022/05/06 08:27:02;;;;;;;2.05;1.40;;;20.70;50.00;;;;;;6271470;28;20619;-70
2022/05/06 08:30:05;;;;;;;2.35;1.30;;;20.70;50.00;;;;;;6271161;28;20025;-70
2022/05/06 08:33:06;;;;;;;2.15;1.45;;;20.70;50.00;;;;;;6271224;28;20060;-70
2022/05/06 08:36:06;;;;;;;1.92;1.10;;;20.70;50.00;;;;;;6271053;28;20103;-70
2022/05/06 08:39:10;;;;;;;1.55;1.33;;;20.70;50.00;;;;;;6263658;28;20560;-70
2022/05/06 08:42:11;;;;;;;1.70;1.17;;;20.70;50.00;;;;;;6252691;28;20032;-69
2022/05/06 08:51:58;;;;;;;1.88;1.23;;;20.70;50.00;;;;;;6270581;28;20028;-70
2022/05/06 08:55:04;;;;;;;1.83;1.35;;;20.70;50.00;;;;;;6270304;28;20033;-68
2022/05/06 08:58:06;;;;;;;2.05;1.40;;;20.70;50.00;;;;;;6270694;28;20132;-67
2022/05/06 09:01:08;;;;;;;2.50;1.17;;;20.70;50.00;;;;;;6270089;28;20419;-68
2022/05/06 09:04:09;;;;;;;2.47;1.50;;;20.70;50.00;;;;;;6270104;28;20661;-71
2022/05/06 09:07:17;;;;;;;2.33;1.10;;;20.70;50.00;;;;;;6270434;28;20025;-69
2022/05/06 09:10:17;;;;;;;2.13;1.35;;;20.70;50.00;;;;;;6244576;28;20407;-69
2022/05/06 09:13:24;;;;;;;3.35;1.13;;;20.70;50.00;;;;;;6245466;28;20030;-69
2022/05/06 09:16:44;;;;;;;2.88;1.58;;;20.70;50.00;;;;;;6246045;28;20017;-68
2022/05/06 09:19:45;;;;;;;7.82;1.45;;;20.70;50.00;;;;;;6243693;28;20034;-69
2022/05/06 09:22:47;;;;;;;2.67;1.45;;;20.70;50.00;;;;;;6244048;28;20111;-68
2022/05/06 09:25:54;;;;;;;2.75;1.20;;;20.70;50.00;;;;;;6241711;28;20025;-69
2022/05/06 09:28:55;;;;;;;2.38;1.33;;;20.70;50.00;;;;;;6244821;28;20029;-69
2022/05/06 09:32:19;;;;;;;2.88;1.10;;;20.70;50.00;;;;;;6244347;28;20033;-69
2022/05/06 09:35:25;;;;;;;4.25;1.45;;;20.70;49.90;;;;;;6243832;28;20017;-68
2022/05/06 09:38:29;;;;;;;3.17;1.42;;;20.70;50.00;;;;;;6244861;28;20855;-70
2022/05/06 09:41:31;;;;;;;2.50;1.10;;;20.70;49.90;;;;;;6244957;28;20456;-68
2022/05/06 09:44:33;;;;;;;3.33;1.23;;;20.70;50.00;;;;;;6243196;28;20053;-68
2022/05/06 09:47:34;;;;;;;3.17;1.42;;;20.70;49.90;;;;;;6244971;28;20044;-68
2022/05/06 09:50:38;;;;;;;2.08;1.30;;;20.70;49.90;;;;;;6243087;28;20061;-67
2022/05/06 09:53:38;;;;;;;3.28;1.20;;;20.70;49.90;;;;;;6244338;28;20044;-69
2022/05/06 09:56:41;;;;;;;3.20;1.08;;;20.70;50.00;;;;;;6243862;28;20030;-68
2022/05/06 09:59:42;;;;;;;6.70;1.50;;;20.70;49.80;;;;;;6244324;28;20030;-68
2022/05/06 10:02:42;;;;;;;3.35;1.30;;;20.70;50.00;;;;;;6244262;28;20048;-68
2022/05/06 10:05:43;;;;;;;2.83;1.30;;;20.70;49.80;;;;;;6243719;28;20022;-68
2022/05/06 10:08:48;;;;;;;3.55;1.40;;;20.70;50.00;;;;;;6249284;28;20045;-68
2022/05/06 10:11:53;;;;;;;3.45;1.23;;;20.70;49.90;;;;;;6268765;28;20114;-69
2022/05/06 10:14:54;;;;;;;2.38;1.13;;;20.70;49.90;;;;;;6269159;28;20086;-68
2022/05/06 10:17:56;;;;;;;4.35;1.30;;;20.70;50.50;;;;;;6268772;28;20029;-68
2022/05/06 10:20:56;;;;;;;2.92;1.45;;;20.70;49.80;;;;;;6268647;28;20100;-68
2022/05/06 10:23:57;;;;;;;4.10;1.60;;;20.70;49.80;;;;;;6269147;28;20494;-70
2022/05/06 10:26:58;;;;;;;1.88;1.30;;;20.70;49.90;;;;;;6265844;28;20033;-70
2022/05/06 10:33:18;;;;;;;3.95;1.40;;;20.70;50.00;;;;;;6262135;28;20033;-69
2022/05/06 10:36:43;;;;;;;5.35;1.50;;;20.70;49.80;;;;;;6267739;28;20545;-70
2022/05/06 10:39:44;;;;;;;2.42;1.42;;;20.80;49.60;;;;;;6267000;28;20490;-68
2022/05/06 10:42:45;;;;;;;2.67;1.20;;;20.80;49.80;;;;;;6273431;28;20037;-70
2022/05/06 10:45:48;;;;;;;2.83;1.20;;;20.80;49.70;;;;;;6272962;28;20481;-70
2022/05/06 10:48:51;;;;;;;2.58;1.30;;;20.70;49.80;;;;;;6272935;28;20024;-70
2022/05/06 10:51:52;;;;;;;2.92;1.50;;;20.70;49.70;;;;;;6272766;28;20041;-70
2022/05/06 10:54:54;;;;;;;7.15;1.73;;;20.70;49.70;;;;;;6249620;28;20025;-70
2022/05/06 10:58:01;;;;;;;3.63;1.33;;;20.70;49.80;;;;;;6246114;28;20041;-70
2022/05/06 11:01:01;;;;;;;4.00;1.35;;;20.70;49.70;;;;;;6230569;28;20025;-70
2022/05/06 11:04:02;;;;;;;1.88;1.20;;;20.70;49.80;;;;;;6234370;28;20033;-70
2022/05/06 11:07:13;;;;;;;3.35;1.30;;;20.70;49.80;;;;;;6229284;28;20029;-70
2022/05/06 11:10:16;;;;;;;2.95;1.02;;;20.70;49.80;;;;;;6264486;28;20049;-70
2022/05/06 11:13:18;;;;;;;3.30;1.27;;;20.70;49.80;;;;;;6257152;28;20491;-70
2022/05/06 11:16:20;;;;;;;2.38;0.90;;;20.70;49.80;;;;;;6272352;28;20017;-69
2022/05/06 11:19:33;;;;;;;2.42;1.33;;;20.70;49.80;;;;;;6272074;28;20068;-70
2022/05/06 11:22:34;;;;;;;5.18;1.20;;;20.70;49.80;;;;;;6254401;28;20021;-70
2022/05/06 11:25:37;;;;;;;2.15;1.30;;;20.70;49.90;;;;;;6254527;28;20033;-68
2022/05/06 11:28:37;;;;;;;1.60;1.17;;;20.70;49.80;;;;;;6254094;28;20029;-68
2022/05/06 11:31:45;;;;;;;3.00;1.10;;;20.70;49.90;;;;;;6272005;28;20017;-70
2022/05/06 11:35:14;;;;;;;1.60;1.20;;;20.70;49.90;;;;;;6271753;28;20541;-68
2022/05/06 11:38:15;;;;;;;2.47;1.20;;;20.70;49.90;;;;;;6264910;28;20025;-69
2022/05/06 11:41:17;;;;;;;2.50;0.90;;;20.70;49.90;;;;;;6271761;28;20028;-68
2022/05/06 11:47:27;;;;;;;3.70;1.30;;;20.70;49.90;;;;;;6253663;28;20778;-69
2022/05/06 11:47:46;;;;;;;1.98;1.00;;;20.70;49.90;;;;;;6270983;28;20044;-69
2022/05/06 11:50:53;;;;;;;2.05;1.10;;;20.70;49.90;;;;;;6253225;28;20025;-69
2022/05/06 11:53:54;;;;;;;2.03;1.10;;;20.70;50.00;;;;;;6256375;28;20036;-69
2022/05/06 11:56:55;;;;;;;2.78;1.00;;;20.70;49.90;;;;;;6228538;28;20116;-69
2022/05/06 11:59:56;;;;;;;1.77;1.13;;;20.70;50.00;;;;;;6268390;28;20082;-69
2022/05/06 12:03:05;;;;;;;2.10;1.02;;;20.70;50.00;;;;;;6243326;28;20025;-69
2022/05/06 12:06:08;;;;;;;2.38;1.25;;;20.70;50.00;;;;;;6270127;28;20060;-70
2022/05/06 12:09:14;;;;;;;2.70;1.30;;;20.70;50.00;;;;;;6270778;28;20045;-69
2022/05/06 12:12:14;;;;;;;1.50;1.20;;;20.70;50.00;;;;;;6252998;28;20506;-69
2022/05/06 12:15:16;;;;;;;1.55;1.08;;;20.70;50.00;;;;;;6271675;28;20033;-69
2022/05/06 12:18:25;;;;;;;2.40;1.30;;;20.70;50.00;;;;;;6252966;28;20029;-69
2022/05/06 12:21:27;;;;;;;1.45;0.90;;;20.70;50.00;;;;;;6253002;28;20024;-70
2022/05/06 12:24:47;;;;;;;1.02;0.80;;;20.70;50.00;;;;;;6252150;28;20024;-69
2022/05/06 12:28:23;;;;;;;1.70;0.90;;;20.70;50.00;;;;;;6252979;28;20025;-69
2022/05/06 12:31:33;;;;;;;1.48;1.10;;;20.70;50.00;;;;;;6247905;28;20029;-66
2022/05/06 12:34:34;;;;;;;1.65;1.10;;;20.70;50.00;;;;;;6256449;28;20033;-70
2022/05/06 12:37:35;;;;;;;1.20;1.00;;;20.70;50.00;;;;;;6267331;28;20498;-69
2022/05/06 12:40:35;;;;;;;1.17;0.75;;;20.70;50.80;;;;;;6269682;28;20029;-69
2022/05/06 12:43:36;;;;;;;0.88;0.77;;;20.70;50.40;;;;;;6252529;28;20036;-69
2022/05/06 12:46:37;;;;;;;1.45;1.10;;;20.70;50.20;;;;;;6270520;28;20025;-69
2022/05/06 12:49:41;;;;;;;3.00;1.10;;;20.70;50.10;;;;;;6265397;28;20025;-70
2022/05/06 12:52:43;;;;;;;1.87;1.07;;;20.80;50.10;;;;;;6249794;28;20044;-70
2022/05/06 12:55:44;;;;;;;1.40;1.00;;;20.80;50.10;;;;;;6252315;28;20025;-69
2022/05/06 12:58:44;;;;;;;1.98;1.00;;;20.80;50.00;;;;;;6269935;28;20055;-69
2022/05/06 13:01:45;;;;;;;1.45;0.90;;;20.80;50.00;;;;;;6270309;28;20398;-69
2022/05/06 13:04:46;;;;;;;1.80;0.90;;;20.80;50.00;;;;;;6269872;28;20031;-69
2022/05/06 13:07:47;;;;;;;1.63;0.90;;;20.80;50.00;;;;;;6269492;28;20036;-69
2022/05/06 13:10:48;;;;;;;2.15;0.88;;;20.80;49.90;;;;;;6270135;28;20513;-69
2022/05/06 13:13:49;;;;;;;1.25;0.93;;;20.80;50.10;;;;;;6252345;28;20032;-69
2022/05/06 13:16:51;;;;;;;1.23;0.90;;;20.80;50.10;;;;;;6270181;28;20415;-69
2022/05/06 13:19:51;;;;;;;0.90;0.80;;;20.80;49.90;;;;;;6269830;28;20033;-67
2022/05/06 13:22:52;;;;;;;1.80;1.00;;;20.80;49.90;;;;;;6251672;28;20088;-67
2022/05/06 13:25:53;;;;;;;0.95;0.80;;;20.80;49.90;;;;;;6251612;28;20368;-69
2022/05/06 13:28:53;;;;;;;1.52;0.88;;;20.80;49.90;;;;;;6269474;28;20029;-68
2022/05/06 13:31:54;;;;;;;1.80;0.80;;;20.80;49.90;;;;;;6246856;28;20061;-67
2022/05/06 13:34:55;;;;;;;1.25;0.80;;;20.80;50.00;;;;;;6226966;28;20033;-67
2022/05/06 13:37:56;;;;;;;1.15;0.80;;;20.70;49.90;;;;;;6226585;28;20526;-68
2022/05/06 13:40:56;;;;;;;1.17;0.82;;;20.70;50.00;;;;;;6244632;28;20036;-68
2022/05/06 13:43:57;;;;;;;1.00;0.82;;;20.70;50.00;;;;;;6251302;28;20021;-69
2022/05/06 13:46:57;;;;;;;0.77;0.70;;;20.70;50.00;;;;;;6269047;28;20029;-69
2022/05/06 13:49:58;;;;;;;1.00;0.90;;;20.70;50.00;;;;;;6269199;28;20025;-68
2022/05/06 13:52:58;;;;;;;1.45;0.90;;;20.70;50.00;;;;;;6243575;28;20034;-69
2022/05/06 13:59:20;;;;;;;0.98;0.77;;;20.70;50.00;;;;;;6243847;28;20120;-69
2022/05/06 14:02:21;;;;;;;0.93;0.85;;;20.70;50.00;;;;;;6244772;28;20079;-68
2022/05/06 14:05:21;;;;;;;1.42;0.77;;;20.70;50.20;;;;;;6262127;28;20021;-67
2022/05/06 14:08:22;;;;;;;1.25;0.88;;;20.70;50.40;;;;;;6249781;28;20025;-68
2022/05/06 14:11:26;;;;;;;1.33;0.80;;;20.70;50.10;;;;;;6250303;28;20017;-69
2022/05/06 14:14:26;;;;;;;0.63;0.60;;;20.70;50.40;;;;;;6247277;28;20037;-68
2022/05/06 14:17:27;;;;;;;0.50;0.50;;;20.70;50.40;;;;;;6267701;28;20022;-69
2022/05/06 14:20:28;;;;;;;0.70;0.60;;;20.80;50.20;;;;;;6245026;28;20025;-69
2022/05/06 14:23:29;;;;;;;1.27;0.73;;;20.70;50.20;;;;;;6259710;28;20461;-69
2022/05/06 14:26:30;;;;;;;0.73;0.63;;;20.80;50.20;;;;;;6236575;28;20021;-71
2022/05/06 14:29:31;;;;;;;1.38;0.80;;;20.70;50.10;;;;;;6268091;28;20025;-67
2022/05/06 14:32:31;;;;;;;0.95;0.60;;;20.80;50.20;;;;;;6267881;28;20040;-68
2022/05/06 14:35:33;;;;;;;0.98;0.60;;;20.80;50.20;;;;;;6268390;28;20029;-67
2022/05/06 14:38:34;;;;;;;1.15;0.65;;;20.80;50.20;;;;;;6250444;28;20059;-67
2022/05/06 14:41:35;;;;;;;1.15;0.80;;;20.80;50.20;;;;;;6268823;28;20017;-67
2022/05/06 14:44:36;;;;;;;1.08;0.70;;;20.80;50.10;;;;;;6268446;28;20079;-67
2022/05/06 14:47:38;;;;;;;1.45;0.70;;;20.80;50.10;;;;;;6268410;28;20094;-67
2022/05/06 14:50:39;;;;;;;1.63;0.73;;;20.80;50.10;;;;;;6268208;28;20025;-67
2022/05/06 14:53:39;;;;;;;1.75;0.70;;;20.80;50.10;;;;;;6242117;28;20063;-67
2022/05/06 14:56:40;;;;;;;1.10;0.70;;;20.80;50.10;;;;;;6263055;28;20029;-68
2022/05/06 14:59:41;;;;;;;0.73;0.65;;;20.80;50.10;;;;;;6260823;28;20496;-69
2022/05/06 15:02:42;;;;;;;2.00;0.70;;;20.90;50.20;;;;;;6268365;28;20052;-69
2022/05/06 15:05:43;;;;;;;0.90;0.70;;;20.90;50.20;;;;;;6250543;28;20032;-68
2022/05/06 15:08:44;;;;;;;0.60;0.57;;;20.80;50.00;;;;;;6250246;28;20555;-69
2022/05/06 15:11:44;;;;;;;1.63;0.85;;;20.80;50.10;;;;;;6268614;28;20053;-68
2022/05/06 15:14:45;;;;;;;0.90;0.60;;;20.90;50.10;;;;;;6268119;28;20039;-67
2022/05/06 15:17:46;;;;;;;0.95;0.80;;;20.90;50.10;;;;;;6267811;28;20036;-68
2022/05/06 15:20:47;;;;;;;0.50;0.50;;;20.90;50.10;;;;;;6268071;28;20025;-67
2022/05/06 15:23:48;;;;;;;1.60;0.70;;;20.90;50.10;;;;;;6259745;28;20017;-71
2022/05/06 15:26:48;;;;;;;1.30;0.85;;;20.90;50.20;;;;;;6251623;28;20028;-68
2022/05/06 15:29:49;;;;;;;0.82;0.73;;;20.90;50.10;;;;;;6271845;28;20527;-68
2022/05/06 15:32:50;;;;;;;0.85;0.50;;;20.90;50.10;;;;;;6270824;28;20054;-69
2022/05/06 15:35:50;;;;;;;0.80;0.70;;;20.90;50.10;;;;;;6254593;28;20036;-69
2022/05/06 15:38:51;;;;;;;1.00;0.70;;;20.80;50.10;;;;;;6271677;28;20104;-69
2022/05/06 15:41:51;;;;;;;1.58;0.63;;;20.80;50.00;;;;;;6246965;28;20021;-68
2022/05/06 15:44:52;;;;;;;0.70;0.60;;;20.80;50.00;;;;;;6253644;28;20025;-68
2022/05/06 15:47:57;;;;;;;0.60;0.60;;;20.80;50.00;;;;;;6254081;28;20029;-68
2022/05/06 15:50:58;;;;;;;1.08;0.80;;;20.80;50.00;;;;;;6254030;28;20025;-68
2022/05/06 15:53:58;;;;;;;0.40;0.40;;;20.80;50.70;;;;;;6255990;28;20037;-69
2022/05/06 15:56:59;;;;;;;2.67;0.70;;;20.80;50.20;;;;;;6246840;28;20038;-69
2022/05/06 16:00:02;;;;;;;0.82;0.70;;;20.80;50.10;;;;;;6249567;28;20021;-69
2022/05/06 16:03:03;;;;;;;0.95;0.70;;;20.80;50.10;;;;;;6253951;28;20033;-69
2022/05/06 16:06:04;;;;;;;3.40;0.73;;;20.80;50.10;;;;;;6271852;28;20021;-68
2022/05/06 16:09:05;;;;;;;1.25;0.80;;;20.80;50.10;;;;;;6236629;28;20362;-69
2022/05/06 16:12:08;;;;;;;1.30;0.63;;;20.80;50.10;;;;;;6237212;28;20041;-69
2022/05/06 16:15:18;;;;;;;1.05;0.55;;;20.70;50.10;;;;;;6219123;28;20105;-67
2022/05/06 16:18:18;;;;;;;0.85;0.57;;;20.80;50.20;;;;;;6217292;28;20037;-68
2022/05/06 16:21:19;;;;;;;0.50;0.50;;;20.70;50.10;;;;;;6220037;28;20436;-69
2022/05/06 16:24:20;;;;;;;0.40;0.40;;;20.70;50.10;;;;;;6219851;28;20032;-68
2022/05/06 16:27:21;;;;;;;1.13;0.55;;;20.70;50.10;;;;;;6219734;28;20108;-69
2022/05/06 16:30:22;;;;;;;0.73;0.63;;;20.70;50.20;;;;;;6219287;28;20022;-69
2022/05/06 16:33:23;;;;;;;0.70;0.68;;;20.70;50.20;;;;;;6218478;28;20378;-69